createdAt,value
2019-02-11T00:00:05.890Z,-968.70
2019-02-11T00:01:05.966Z,-964.81
2019-02-11T00:02:06.206Z,-961.18
2019-02-11T00:03:06.425Z,-956.71
2019-02-11T00:04:06.649Z,-961.35
2019-02-11T00:05:07.113Z,-962.48
2019-02-11T00:06:07.064Z,-957.61
2019-02-11T00:07:07.274Z,-954.74
2019-02-11T00:08:07.560Z,-954.10
2019-02-11T00:09:07.704Z,-961.21
2019-02-11T00:10:07.946Z,-958.01
2019-02-11T00:11:08.138Z,-967.44
2019-02-11T00:12:08.353Z,-973.10
2019-02-11T00:13:10.665Z,-973.47
2019-02-11T00:14:08.780Z,-973.96
2019-02-11T00:15:09.036Z,-971.47
2019-02-11T00:16:09.285Z,-966.25
2019-02-11T00:17:09.445Z,-971.74
2019-02-11T00:18:09.664Z,-970.89
2019-02-11T00:19:11.043Z,-971.60
2019-02-11T00:20:10.155Z,-970.90
2019-02-11T00:21:10.340Z,-967.44
2019-02-11T00:22:10.557Z,-977.60
2019-02-11T00:23:10.788Z,-972.52
2019-02-11T00:24:10.986Z,-969.72
2019-02-11T00:25:11.343Z,-967.95
2019-02-11T00:26:11.415Z,-971.64
2019-02-11T00:27:11.632Z,-968.74
2019-02-11T00:28:11.864Z,-967.46
2019-02-11T00:29:12.047Z,-972.64
2019-02-11T00:30:12.304Z,-969.57
2019-02-11T00:31:12.501Z,-972.02
2019-02-11T00:32:12.697Z,-970.29
2019-02-11T00:33:13.068Z,-974.16
2019-02-11T00:34:13.136Z,-972.61
2019-02-11T00:35:13.421Z,-962.00
2019-02-11T00:36:13.578Z,-970.96
2019-02-11T00:37:13.804Z,-967.13
2019-02-11T00:38:14.040Z,-973.85
2019-02-11T00:39:14.216Z,-968.71
2019-02-11T00:40:14.456Z,-969.18
2019-02-11T00:41:14.767Z,-974.01
2019-02-11T00:42:14.862Z,-972.97
2019-02-11T00:43:19.146Z,-968.64
2019-02-11T00:44:15.298Z,-973.54
2019-02-11T00:45:15.527Z,-972.77
2019-02-11T00:46:15.731Z,-973.16
2019-02-11T00:47:15.944Z,-974.59
2019-02-11T00:48:16.176Z,-973.68
2019-02-11T00:49:16.417Z,-973.38
2019-02-11T00:50:16.596Z,-975.16
2019-02-11T00:51:16.774Z,-978.75
2019-02-11T00:52:17.003Z,-969.91
2019-02-11T00:53:17.244Z,-974.10
2019-02-11T00:54:17.449Z,-978.50
2019-02-11T00:55:17.699Z,-979.30
2019-02-11T00:56:17.850Z,-987.30
2019-02-11T00:57:18.126Z,-978.98
2019-02-11T00:58:18.386Z,-974.16
2019-02-11T00:59:18.522Z,-976.57
2019-02-11T01:00:18.770Z,-979.28
2019-02-11T01:01:18.940Z,-978.97
2019-02-11T01:02:19.171Z,-972.64
2019-02-11T01:03:19.414Z,-975.17
2019-02-11T01:04:19.613Z,-977.02
2019-02-11T01:05:19.878Z,-975.81
2019-02-11T01:06:20.176Z,-972.48
2019-02-11T01:07:20.266Z,-974.50
2019-02-11T01:08:20.493Z,-980.43
2019-02-11T01:09:20.691Z,-979.39
2019-02-11T01:10:20.915Z,-979.66
2019-02-11T01:11:21.126Z,-980.75
2019-02-11T01:12:21.325Z,-978.18
2019-02-11T01:13:27.569Z,-976.18
2019-02-11T01:14:22.886Z,-977.23
2019-02-11T01:15:21.988Z,-973.06
2019-02-11T01:16:22.215Z,-969.47
2019-02-11T01:17:22.415Z,-978.99
2019-02-11T01:18:22.661Z,-973.96
2019-02-11T01:19:22.860Z,-973.80
2019-02-11T01:20:23.084Z,-977.25
2019-02-11T01:21:23.308Z,-979.11
2019-02-11T01:22:23.562Z,-973.41
2019-02-11T01:23:23.729Z,-979.80
2019-02-11T01:24:23.954Z,-979.42
2019-02-11T01:25:24.168Z,-977.88
2019-02-11T01:26:24.390Z,-978.60
2019-02-11T01:27:24.578Z,-979.13
2019-02-11T01:28:24.817Z,-979.26
2019-02-11T01:29:25.008Z,-980.35
2019-02-11T01:30:25.440Z,-981.81
2019-02-11T01:31:25.520Z,-984.20
2019-02-11T01:32:25.695Z,-979.28
2019-02-11T01:33:25.936Z,-980.17
2019-02-11T01:34:26.120Z,-979.09
2019-02-11T01:35:26.356Z,-975.61
2019-02-11T01:36:26.584Z,-976.61
2019-02-11T01:37:26.772Z,-970.98
2019-02-11T01:38:27.040Z,-980.76
2019-02-11T01:39:27.323Z,-976.13
2019-02-11T01:40:27.437Z,-980.55
2019-02-11T01:41:27.664Z,-979.44
2019-02-11T01:42:28.086Z,-977.42
2019-02-11T01:43:35.656Z,-984.83
2019-02-11T01:44:29.274Z,-978.48
2019-02-11T01:45:28.523Z,-976.11
2019-02-11T01:46:28.745Z,-984.09
2019-02-11T01:47:29.074Z,-973.38
2019-02-11T01:48:29.179Z,-983.47
2019-02-11T01:49:29.363Z,-982.34
2019-02-11T01:50:29.624Z,-979.29
2019-02-11T01:51:29.826Z,-978.83
2019-02-11T01:52:30.019Z,-983.42
2019-02-11T01:53:30.257Z,-974.78
2019-02-11T01:54:30.455Z,-977.75
2019-02-11T01:55:30.774Z,-980.14
2019-02-11T01:56:30.887Z,-980.59
2019-02-11T01:57:31.092Z,-978.35
2019-02-11T01:58:31.324Z,-972.32
2019-02-11T01:59:31.524Z,-977.27
2019-02-11T02:00:31.731Z,-980.01
2019-02-11T02:01:31.972Z,-978.05
2019-02-11T02:02:32.183Z,-974.27
2019-02-11T02:03:32.447Z,-974.10
2019-02-11T02:04:32.588Z,-971.96
2019-02-11T02:05:32.837Z,-974.85
2019-02-11T02:06:33.062Z,-971.72
2019-02-11T02:07:33.246Z,-972.10
2019-02-11T02:08:33.486Z,-975.04
2019-02-11T02:09:33.687Z,-971.81
2019-02-11T02:10:33.901Z,-971.45
2019-02-11T02:11:34.192Z,-974.60
2019-02-11T02:12:34.359Z,-977.36
2019-02-11T02:13:34.546Z,-972.43
2019-02-11T02:14:34.761Z,-973.12
2019-02-11T02:15:34.988Z,-969.21
2019-02-11T02:16:35.195Z,-974.32
2019-02-11T02:17:35.408Z,-972.99
2019-02-11T02:18:35.640Z,-977.59
2019-02-11T02:19:35.874Z,-968.90
2019-02-11T02:20:36.263Z,-969.81
2019-02-11T02:21:36.343Z,-966.63
2019-02-11T02:22:36.556Z,-972.34
2019-02-11T02:23:36.767Z,-971.38
2019-02-11T02:24:37.029Z,-966.64
2019-02-11T02:25:37.223Z,-969.03
2019-02-11T02:26:37.457Z,-965.92
2019-02-11T02:27:37.631Z,-959.39
2019-02-11T02:28:37.980Z,-957.14
2019-02-11T02:29:38.093Z,-959.79
2019-02-11T02:30:38.296Z,-957.60
2019-02-11T02:31:38.522Z,-959.44
2019-02-11T02:32:38.709Z,-953.49
2019-02-11T02:33:38.925Z,-948.87
2019-02-11T02:34:39.187Z,-949.90
2019-02-11T02:35:39.403Z,-951.84
2019-02-11T02:36:39.639Z,-954.60
2019-02-11T02:37:39.788Z,-948.74
2019-02-11T02:38:40.002Z,-954.00
2019-02-11T02:39:40.277Z,-957.74
2019-02-11T02:40:40.439Z,-969.96
2019-02-11T02:41:40.740Z,-961.83
2019-02-11T02:42:40.863Z,-966.77
2019-02-11T02:43:41.090Z,-970.37
2019-02-11T02:44:41.414Z,-968.44
2019-02-11T02:45:41.557Z,-968.50
2019-02-11T02:46:41.766Z,-970.42
2019-02-11T02:47:41.957Z,-971.54
2019-02-11T02:48:42.181Z,-974.06
2019-02-11T02:49:42.424Z,-972.46
2019-02-11T02:50:42.610Z,-974.63
2019-02-11T02:51:42.846Z,-978.46
2019-02-11T02:52:43.056Z,-978.43
2019-02-11T02:53:43.419Z,-974.30
2019-02-11T02:54:43.516Z,-975.87
2019-02-11T02:55:43.702Z,-980.91
2019-02-11T02:56:43.935Z,-972.33
2019-02-11T02:57:44.143Z,-917.68
2019-02-11T02:58:44.348Z,-920.77
2019-02-11T02:59:44.573Z,-922.82
2019-02-11T03:00:44.797Z,-921.46
2019-02-11T03:01:45.348Z,-920.64
2019-02-11T03:02:45.197Z,-920.02
2019-02-11T03:03:45.416Z,-919.23
2019-02-11T03:04:45.632Z,-920.77
2019-02-11T03:05:45.870Z,-921.21
2019-02-11T03:06:46.079Z,-924.40
2019-02-11T03:07:46.275Z,-921.37
2019-02-11T03:08:46.491Z,-921.26
2019-02-11T03:09:46.817Z,-917.69
2019-02-11T03:10:46.919Z,-920.46
2019-02-11T03:11:47.138Z,-923.48
2019-02-11T03:12:47.336Z,-920.75
2019-02-11T03:13:47.553Z,-919.23
2019-02-11T03:14:47.782Z,-921.89
2019-02-11T03:15:48.003Z,-918.14
2019-02-11T03:16:48.198Z,-920.89
2019-02-11T03:17:48.465Z,-923.81
2019-02-11T03:18:48.623Z,-921.91
2019-02-11T03:19:49.065Z,-914.98
2019-02-11T03:20:49.041Z,-914.79
2019-02-11T03:21:49.263Z,-918.73
2019-02-11T03:22:49.475Z,-918.89
2019-02-11T03:23:49.730Z,-919.31
2019-02-11T03:24:49.942Z,-911.67
2019-02-11T03:25:50.157Z,-915.70
2019-02-11T03:26:50.482Z,-917.12
2019-02-11T03:27:50.665Z,-918.48
2019-02-11T03:28:50.920Z,-917.52
2019-02-11T03:29:51.148Z,-913.07
2019-02-11T03:30:51.365Z,-920.04
2019-02-11T03:31:51.610Z,-913.07
2019-02-11T03:32:51.786Z,-912.69
2019-02-11T03:33:52.057Z,-922.87
2019-02-11T03:34:52.390Z,-916.43
2019-02-11T03:35:52.492Z,-919.71
2019-02-11T03:36:52.692Z,-917.19
2019-02-11T03:37:52.929Z,-913.28
2019-02-11T03:38:53.192Z,-917.04
2019-02-11T03:39:53.407Z,-915.59
2019-02-11T03:40:53.612Z,-915.04
2019-02-11T03:41:53.835Z,-920.66
2019-02-11T03:42:54.142Z,-915.57
2019-02-11T03:43:54.273Z,-915.90
2019-02-11T03:44:54.507Z,-913.83
2019-02-11T03:45:54.712Z,-918.92
2019-02-11T03:46:54.942Z,-917.51
2019-02-11T03:47:55.172Z,-915.53
2019-02-11T03:48:55.367Z,-918.61
2019-02-11T03:49:55.616Z,-918.65
2019-02-11T03:50:55.892Z,-917.45
2019-02-11T03:51:56.069Z,-914.00
2019-02-11T03:52:56.286Z,-914.40
2019-02-11T03:53:56.514Z,-915.73
2019-02-11T03:54:56.713Z,-916.17
2019-02-11T03:55:57.012Z,-916.28
2019-02-11T03:56:57.186Z,-915.51
2019-02-11T03:57:57.412Z,-909.95
2019-02-11T03:58:57.647Z,-916.77
2019-02-11T03:59:57.842Z,-917.18
2019-02-11T04:00:58.025Z,-912.28
2019-02-11T04:01:58.275Z,-910.68
2019-02-11T04:02:58.444Z,-907.08
2019-02-11T04:03:58.660Z,-912.86
2019-02-11T04:04:58.882Z,-913.18
2019-02-11T04:05:59.099Z,-911.17
2019-02-11T04:06:59.553Z,-915.97
2019-02-11T04:07:59.733Z,-916.24
2019-02-11T04:08:59.809Z,-909.57
2019-02-11T04:10:00.038Z,-909.33
2019-02-11T04:11:00.258Z,-913.05
2019-02-11T04:12:00.487Z,-913.37
2019-02-11T04:13:00.715Z,-912.29
2019-02-11T04:14:00.918Z,-914.51
2019-02-11T04:15:01.159Z,-912.84
2019-02-11T04:16:01.438Z,-913.18
2019-02-11T04:17:01.588Z,-913.67
2019-02-11T04:18:01.825Z,-912.64
2019-02-11T04:19:02.025Z,-908.19
2019-02-11T04:20:02.259Z,-910.91
2019-02-11T04:21:02.450Z,-913.65
2019-02-11T04:22:02.702Z,-914.42
2019-02-11T04:23:02.932Z,-906.80
2019-02-11T04:24:03.190Z,-913.71
2019-02-11T04:25:03.350Z,-907.72
2019-02-11T04:26:03.551Z,-912.55
2019-02-11T04:27:03.784Z,-912.36
2019-02-11T04:28:04.027Z,-909.88
2019-02-11T04:29:04.234Z,-914.68
2019-02-11T04:30:04.474Z,-913.48
2019-02-11T04:31:04.684Z,-913.74
2019-02-11T04:32:04.930Z,-915.14
2019-02-11T04:33:05.117Z,-914.34
2019-02-11T04:34:05.357Z,-916.83
2019-02-11T04:35:05.573Z,-914.51
2019-02-11T04:36:05.798Z,-912.90
2019-02-11T04:37:06.046Z,-919.98
2019-02-11T04:38:06.269Z,-912.73
2019-02-11T04:39:06.453Z,-917.23
2019-02-11T04:40:06.708Z,-919.94
2019-02-11T04:41:07.004Z,-915.26
2019-02-11T04:42:07.158Z,-911.02
2019-02-11T04:43:07.381Z,-917.56
2019-02-11T04:44:07.599Z,-911.01
2019-02-11T04:45:07.847Z,-916.58
2019-02-11T04:46:08.068Z,-913.90
2019-02-11T04:47:08.287Z,-916.05
2019-02-11T04:48:08.522Z,-916.80
2019-02-11T04:49:08.793Z,-917.52
2019-02-11T04:50:08.954Z,-918.33
2019-02-11T04:51:09.179Z,-916.15
2019-02-11T04:52:09.405Z,-910.95
2019-02-11T04:53:09.652Z,-916.43
2019-02-11T04:54:09.824Z,-917.76
2019-02-11T04:55:10.062Z,-913.57
2019-02-11T04:56:10.301Z,-916.55
2019-02-11T04:57:10.577Z,-912.76
2019-02-11T04:58:10.734Z,-916.72
2019-02-11T04:59:10.935Z,-916.25
2019-02-11T05:00:11.158Z,-916.53
2019-02-11T05:01:11.414Z,-916.05
2019-02-11T05:02:11.859Z,-916.69
2019-02-11T05:03:11.860Z,-912.22
2019-02-11T05:04:12.071Z,-913.98
2019-02-11T05:05:12.357Z,-912.55
2019-02-11T05:06:12.490Z,-917.00
2019-02-11T05:07:12.743Z,-914.19
2019-02-11T05:08:12.981Z,-912.32
2019-02-11T05:09:13.165Z,-920.79
2019-02-11T05:10:13.380Z,-916.06
2019-02-11T05:11:13.637Z,-915.56
2019-02-11T05:12:13.820Z,-915.22
2019-02-11T05:13:14.134Z,-915.60
2019-02-11T05:14:14.320Z,-919.13
2019-02-11T05:15:14.511Z,-911.94
2019-02-11T05:16:14.747Z,-916.67
2019-02-11T05:17:14.952Z,-916.93
2019-02-11T05:18:16.860Z,-923.97
2019-02-11T05:19:15.467Z,-920.50
2019-02-11T05:20:15.636Z,-921.48
2019-02-11T05:21:15.889Z,-921.50
2019-02-11T05:22:16.203Z,-916.93
2019-02-11T05:23:16.316Z,-906.59
2019-02-11T05:24:16.519Z,-908.93
2019-02-11T05:25:16.744Z,-913.85
2019-02-11T05:26:16.980Z,-914.60
2019-02-11T05:27:17.200Z,-915.90
2019-02-11T05:28:17.405Z,-920.56
2019-02-11T05:29:17.630Z,-914.22
2019-02-11T05:30:17.970Z,-916.71
2019-02-11T05:31:18.096Z,-911.10
2019-02-11T05:32:18.314Z,-909.44
2019-02-11T05:33:18.568Z,-916.04
2019-02-11T05:34:18.749Z,-912.98
2019-02-11T05:35:18.970Z,-915.04
2019-02-11T05:36:19.208Z,-913.80
2019-02-11T05:37:19.441Z,-916.59
2019-02-11T05:38:19.721Z,-912.00
2019-02-11T05:39:19.836Z,-910.91
2019-02-11T05:40:20.067Z,-917.36
2019-02-11T05:41:20.303Z,-908.74
2019-02-11T05:42:20.509Z,-915.01
2019-02-11T05:43:20.748Z,-918.39
2019-02-11T05:44:20.969Z,-914.42
2019-02-11T05:45:21.171Z,-916.66
2019-02-11T05:46:21.482Z,-915.70
2019-02-11T05:47:21.635Z,-908.24
2019-02-11T05:48:21.862Z,-908.39
2019-02-11T05:49:22.106Z,-904.30
2019-02-11T05:50:22.331Z,-907.15
2019-02-11T05:51:22.548Z,-903.11
2019-02-11T05:52:22.771Z,-901.76
2019-02-11T05:53:22.992Z,-905.20
2019-02-11T05:54:23.247Z,-906.79
2019-02-11T05:55:23.906Z,-909.62
2019-02-11T05:56:23.659Z,-912.95
2019-02-11T05:57:23.882Z,-909.51
2019-02-11T05:58:24.101Z,-910.84
2019-02-11T05:59:24.342Z,-911.41
2019-02-11T06:00:24.550Z,-911.63
2019-02-11T06:01:24.787Z,-906.75
2019-02-11T06:02:24.987Z,-905.59
2019-02-11T06:03:25.335Z,-903.32
2019-02-11T06:04:25.464Z,-906.73
2019-02-11T06:05:25.655Z,-907.22
2019-02-11T06:06:25.896Z,-915.21
2019-02-11T06:07:26.098Z,-909.60
2019-02-11T06:08:26.332Z,-912.74
2019-02-11T06:09:26.572Z,-911.31
2019-02-11T06:10:26.781Z,-915.70
2019-02-11T06:11:27.086Z,-912.64
2019-02-11T06:12:27.205Z,-912.64
2019-02-11T06:13:27.431Z,-914.30
2019-02-11T06:14:27.672Z,-911.83
2019-02-11T06:15:27.881Z,-904.38
2019-02-11T06:16:28.115Z,-913.35
2019-02-11T06:17:28.335Z,-909.30
2019-02-11T06:18:28.526Z,-908.08
2019-02-11T06:19:28.839Z,-910.03
2019-02-11T06:20:28.988Z,-909.41
2019-02-11T06:21:29.232Z,-907.53
2019-02-11T06:22:29.440Z,-907.03
2019-02-11T06:23:29.765Z,-902.79
2019-02-11T06:24:29.877Z,-908.91
2019-02-11T06:25:30.094Z,-904.04
2019-02-11T06:26:30.341Z,-906.61
2019-02-11T06:27:30.597Z,-910.71
2019-02-11T06:28:30.791Z,-904.46
2019-02-11T06:29:31.045Z,-907.19
2019-02-11T06:30:31.211Z,-906.56
2019-02-11T06:31:31.451Z,-901.67
2019-02-11T06:32:31.647Z,-903.56
2019-02-11T06:33:31.877Z,-900.80
2019-02-11T06:34:33.824Z,-902.72
2019-02-11T06:35:32.325Z,-906.85
2019-02-11T06:36:32.686Z,-900.73
2019-02-11T06:37:32.808Z,-910.37
2019-02-11T06:38:32.991Z,-910.09
2019-02-11T06:39:33.229Z,-907.13
2019-02-11T06:40:33.418Z,-901.00
2019-02-11T06:41:33.879Z,-910.53
2019-02-11T06:42:33.900Z,-900.58
2019-02-11T06:43:34.092Z,-905.60
2019-02-11T06:44:34.459Z,-905.41
2019-02-11T06:45:34.514Z,-903.26
2019-02-11T06:46:34.755Z,-895.92
2019-02-11T06:47:35.245Z,-894.72
2019-02-11T06:48:35.216Z,-897.94
2019-02-11T06:49:42.035Z,-894.47
2019-02-11T06:50:35.662Z,-895.04
2019-02-11T06:51:35.890Z,-885.47
2019-02-11T06:52:40.689Z,-891.61
2019-02-11T06:53:36.323Z,-893.05
2019-02-11T06:54:40.600Z,-901.35
2019-02-11T06:55:36.760Z,-894.55
2019-02-11T06:56:41.630Z,-894.24
2019-02-11T06:57:37.203Z,-897.32
2019-02-11T06:58:37.430Z,-898.78
2019-02-11T06:59:37.717Z,-887.11
2019-02-11T07:00:37.906Z,-890.80
2019-02-11T07:01:38.095Z,-889.08
2019-02-11T07:02:38.301Z,-886.05
2019-02-11T07:03:38.526Z,-881.59
2019-02-11T07:04:38.797Z,-894.53
2019-02-11T07:05:38.952Z,-894.77
2019-02-11T07:06:39.211Z,-898.62
2019-02-11T07:07:39.406Z,-887.82
2019-02-11T07:08:39.670Z,-882.38
2019-02-11T07:09:39.885Z,-883.73
2019-02-11T07:10:40.063Z,-878.94
2019-02-11T07:11:40.314Z,-881.65
2019-02-11T07:12:40.533Z,-884.08
2019-02-11T07:13:40.754Z,-879.24
2019-02-11T07:14:41.040Z,-875.23
2019-02-11T07:15:41.198Z,-882.73
2019-02-11T07:16:41.438Z,-870.65
2019-02-11T07:17:41.769Z,-882.30
2019-02-11T07:18:41.874Z,-877.20
2019-02-11T07:19:42.145Z,-882.03
2019-02-11T07:20:42.314Z,-880.18
2019-02-11T07:21:42.540Z,-882.93
2019-02-11T07:22:42.746Z,-876.97
2019-02-11T07:23:42.982Z,-880.60
2019-02-11T07:24:43.240Z,-877.75
2019-02-11T07:25:43.657Z,-880.69
2019-02-11T07:26:43.631Z,-884.84
2019-02-11T07:27:43.907Z,-882.43
2019-02-11T07:28:44.133Z,-884.68
2019-02-11T07:29:44.343Z,-885.26
2019-02-11T07:30:44.559Z,-878.35
2019-02-11T07:31:44.781Z,-879.47
2019-02-11T07:32:45.003Z,-883.33
2019-02-11T07:33:45.308Z,-884.17
2019-02-11T07:34:45.493Z,-879.44
2019-02-11T07:35:45.675Z,-878.42
2019-02-11T07:36:45.906Z,-872.27
2019-02-11T07:37:46.141Z,-878.75
2019-02-11T07:38:46.342Z,-884.55
2019-02-11T07:39:46.612Z,-877.03
2019-02-11T07:40:46.830Z,-886.87
2019-02-11T07:41:47.066Z,-896.50
2019-02-11T07:42:47.248Z,-899.86
2019-02-11T07:43:47.450Z,-887.54
2019-02-11T07:44:47.682Z,-900.93
2019-02-11T07:45:47.902Z,-891.66
2019-02-11T07:46:48.126Z,-898.68
2019-02-11T07:47:48.370Z,-904.90
2019-02-11T07:48:48.602Z,-894.48
2019-02-11T07:49:48.834Z,-900.34
2019-02-11T07:50:49.066Z,-900.52
2019-02-11T07:51:49.241Z,-882.86
2019-02-11T07:52:49.480Z,-889.47
2019-02-11T07:53:49.690Z,-883.73
2019-02-11T07:54:49.916Z,-887.18
2019-02-11T07:55:50.128Z,-886.63
2019-02-11T07:56:50.351Z,-878.91
2019-02-11T07:57:50.618Z,-886.01
2019-02-11T07:58:50.936Z,-881.86
2019-02-11T07:59:51.054Z,-882.02
2019-02-11T08:00:51.248Z,-904.75
2019-02-11T08:01:51.483Z,-891.57
2019-02-11T08:02:51.718Z,-891.29
2019-02-11T08:03:51.953Z,-905.58
2019-02-11T08:04:52.167Z,-911.67
2019-02-11T08:05:52.389Z,-907.88
2019-02-11T08:06:52.694Z,-904.98
2019-02-11T08:07:52.843Z,-907.97
2019-02-11T08:08:53.045Z,-902.28
2019-02-11T08:09:53.272Z,-900.34
2019-02-11T08:10:53.477Z,-901.36
2019-02-11T08:11:53.676Z,-896.26
2019-02-11T08:12:53.943Z,-893.76
2019-02-11T08:13:54.158Z,-894.53
2019-02-11T08:14:54.420Z,-888.50
2019-02-11T08:15:54.576Z,-887.04
2019-02-11T08:16:54.800Z,-884.69
2019-02-11T08:17:55.024Z,-877.12
2019-02-11T08:18:55.275Z,-883.58
2019-02-11T08:19:55.804Z,-884.21
2019-02-11T08:20:55.766Z,-883.55
2019-02-11T08:21:55.906Z,-887.12
2019-02-11T08:22:56.175Z,-884.82
2019-02-11T08:23:56.378Z,-884.49
2019-02-11T08:24:56.618Z,-883.46
2019-02-11T08:25:56.857Z,-877.81
2019-02-11T08:26:57.056Z,-872.61
2019-02-11T08:27:57.291Z,-874.58
2019-02-11T08:28:57.507Z,-883.10
2019-02-11T08:29:57.688Z,-879.12
2019-02-11T08:30:57.970Z,-877.73
2019-02-11T08:31:58.264Z,-877.85
2019-02-11T08:32:58.407Z,-869.02
2019-02-11T08:33:58.599Z,-879.15
2019-02-11T08:34:58.821Z,-868.93
2019-02-11T08:35:59.084Z,-883.63
2019-02-11T08:36:59.307Z,-876.81
2019-02-11T08:37:59.547Z,-868.45
2019-02-11T08:38:59.763Z,-864.55
2019-02-11T08:40:00.071Z,-877.81
2019-02-11T08:41:00.204Z,-872.51
2019-02-11T08:42:00.423Z,-865.55
2019-02-11T08:43:01.341Z,-870.33
2019-02-11T08:44:00.890Z,-871.86
2019-02-11T08:45:01.087Z,-869.19
2019-02-11T08:46:01.340Z,-876.18
2019-02-11T08:47:01.539Z,-865.80
2019-02-11T08:48:01.840Z,-871.37
2019-02-11T08:49:01.993Z,-886.14
2019-02-11T08:50:02.185Z,-881.14
2019-02-11T08:51:02.421Z,-888.23
2019-02-11T08:52:02.642Z,-890.70
2019-02-11T08:53:02.876Z,-889.42
2019-02-11T08:54:03.092Z,-883.15
2019-02-11T08:55:03.313Z,-885.57
2019-02-11T08:56:03.640Z,-882.48
2019-02-11T08:57:03.717Z,-881.35
2019-02-11T08:58:03.972Z,-881.07
2019-02-11T08:59:04.196Z,-885.98
2019-02-11T09:00:04.408Z,-893.56
2019-02-11T09:01:04.651Z,-886.47
2019-02-11T09:02:04.856Z,-884.95
2019-02-11T09:03:05.086Z,-883.83
2019-02-11T09:04:05.370Z,-880.79
2019-02-11T09:05:05.597Z,-883.18
2019-02-11T09:06:05.786Z,-881.56
2019-02-11T09:07:05.980Z,-887.43
2019-02-11T09:08:06.210Z,-890.57
2019-02-11T09:09:06.452Z,-893.14
2019-02-11T09:10:06.655Z,-889.49
2019-02-11T09:11:06.891Z,-889.09
2019-02-11T09:12:07.098Z,-897.73
2019-02-11T09:13:07.408Z,-890.65
2019-02-11T09:14:07.568Z,-896.67
2019-02-11T09:15:07.767Z,-891.31
2019-02-11T09:16:07.996Z,-893.94
2019-02-11T09:17:10.350Z,-889.63
2019-02-11T09:18:08.446Z,-893.59
2019-02-11T09:19:08.649Z,-895.85
2019-02-11T09:20:08.878Z,-890.35
2019-02-11T09:21:09.206Z,-897.33
2019-02-11T09:22:09.309Z,-890.99
2019-02-11T09:23:09.551Z,-904.54
2019-02-11T09:24:09.738Z,-895.09
2019-02-11T09:25:09.972Z,-887.37
2019-02-11T09:26:10.219Z,-898.47
2019-02-11T09:27:10.419Z,-918.71
2019-02-11T09:28:10.659Z,-910.74
2019-02-11T09:29:10.943Z,-976.79
2019-02-11T09:30:11.054Z,-962.45
2019-02-11T09:31:11.311Z,-971.29
2019-02-11T09:32:11.524Z,-968.67
2019-02-11T09:33:11.758Z,-982.55
2019-02-11T09:34:11.969Z,-980.94
2019-02-11T09:35:12.212Z,-971.63
2019-02-11T09:36:12.406Z,-979.50
2019-02-11T09:37:12.678Z,-969.08
2019-02-11T09:38:12.883Z,-971.40
2019-02-11T09:39:13.076Z,-978.43
2019-02-11T09:40:13.310Z,-974.22
2019-02-11T09:41:13.541Z,-973.84
2019-02-11T09:42:13.737Z,-970.79
2019-02-11T09:43:13.989Z,-972.18
2019-02-11T09:44:14.222Z,-977.37
2019-02-11T09:45:14.484Z,-976.83
2019-02-11T09:46:14.740Z,-977.83
2019-02-11T09:47:14.886Z,-979.37
2019-02-11T09:48:15.117Z,-972.66
2019-02-11T09:49:15.351Z,-969.95
2019-02-11T09:50:15.580Z,-970.59
2019-02-11T09:51:15.809Z,-960.92
2019-02-11T09:52:15.984Z,-958.62
2019-02-11T09:53:16.212Z,-968.79
2019-02-11T09:54:16.597Z,-978.69
2019-02-11T09:55:16.715Z,-968.59
2019-02-11T09:56:16.952Z,-970.19
2019-02-11T09:57:17.143Z,-965.51
2019-02-11T09:58:17.600Z,-973.67
2019-02-11T09:59:17.622Z,-974.27
2019-02-11T10:00:18.035Z,-973.03
2019-02-11T10:01:18.063Z,-974.31
2019-02-11T10:02:18.353Z,-971.92
2019-02-11T10:03:18.455Z,-979.56
2019-02-11T10:04:18.722Z,-974.43
2019-02-11T10:05:18.951Z,-970.53
2019-02-11T10:06:19.174Z,-971.50
2019-02-11T10:07:19.370Z,-920.21
2019-02-11T10:08:19.595Z,-905.83
2019-02-11T10:09:19.817Z,-895.65
2019-02-11T10:10:20.107Z,-913.60
2019-02-11T10:11:20.253Z,-909.08
2019-02-11T10:12:21.378Z,-943.66
2019-02-11T10:13:20.689Z,-929.38
2019-02-11T10:14:20.921Z,-965.68
2019-02-11T10:15:21.152Z,-958.54
2019-02-11T10:16:22.251Z,-942.56
2019-02-11T10:17:29.435Z,-954.64
2019-02-11T10:18:22.845Z,-960.14
2019-02-11T10:19:22.132Z,-963.36
2019-02-11T10:20:22.293Z,-963.63
2019-02-11T10:21:22.507Z,-973.69
2019-02-11T10:22:22.728Z,-977.27
2019-02-11T10:23:22.950Z,-979.26
2019-02-11T10:24:23.183Z,-981.71
2019-02-11T10:25:24.159Z,-978.27
2019-02-11T10:26:23.630Z,-986.22
2019-02-11T10:27:23.966Z,-971.42
2019-02-11T10:28:24.062Z,-974.29
2019-02-11T10:29:24.301Z,-952.59
2019-02-11T10:30:24.509Z,-971.04
2019-02-11T10:31:24.740Z,-910.07
2019-02-11T10:32:24.945Z,-925.00
2019-02-11T10:33:25.174Z,-921.48
2019-02-11T10:34:25.420Z,-910.12
2019-02-11T10:35:25.713Z,-922.29
2019-02-11T10:36:25.936Z,-931.87
2019-02-11T10:37:26.073Z,-917.68
2019-02-11T10:38:27.604Z,-921.82
2019-02-11T10:39:26.536Z,-922.96
2019-02-11T10:40:26.748Z,-916.07
2019-02-11T10:41:26.985Z,-913.26
2019-02-11T10:42:27.168Z,-909.75
2019-02-11T10:43:27.488Z,-915.09
2019-02-11T10:44:27.629Z,-901.85
2019-02-11T10:45:36.245Z,-895.82
2019-02-11T10:46:29.062Z,-891.52
2019-02-11T10:47:28.310Z,-902.16
2019-02-11T10:48:28.508Z,-906.57
2019-02-11T10:49:28.760Z,-911.36
2019-02-11T10:50:29.024Z,-892.31
2019-02-11T10:51:29.219Z,-896.48
2019-02-11T10:52:29.443Z,-916.91
2019-02-11T10:53:29.642Z,-964.44
2019-02-11T10:54:29.896Z,-973.09
2019-02-11T10:55:30.110Z,-961.27
2019-02-11T10:56:30.315Z,-961.35
2019-02-11T10:57:30.570Z,-964.58
2019-02-11T10:58:30.769Z,-979.60
2019-02-11T10:59:31.013Z,-966.19
2019-02-11T11:00:31.343Z,-972.97
2019-02-11T11:01:31.435Z,-963.42
2019-02-11T11:02:31.675Z,-958.28
2019-02-11T11:03:31.880Z,-959.88
2019-02-11T11:04:32.103Z,-949.08
2019-02-11T11:05:32.348Z,-975.85
2019-02-11T11:06:32.565Z,-974.68
2019-02-11T11:07:32.798Z,-969.58
2019-02-11T11:08:33.148Z,-971.60
2019-02-11T11:09:33.228Z,-965.17
2019-02-11T11:10:33.466Z,-955.02
2019-02-11T11:11:33.674Z,-963.99
2019-02-11T11:12:33.915Z,-971.69
2019-02-11T11:13:34.119Z,-960.80
2019-02-11T11:14:34.362Z,-966.15
2019-02-11T11:15:34.562Z,-951.55
2019-02-11T11:16:34.830Z,-948.36
2019-02-11T11:17:35.031Z,-962.52
2019-02-11T11:18:35.238Z,-958.39
2019-02-11T11:19:35.481Z,-962.91
2019-02-11T11:20:35.695Z,-969.59
2019-02-11T11:21:35.892Z,-974.28
2019-02-11T11:22:36.148Z,-972.71
2019-02-11T11:23:36.357Z,-970.46
2019-02-11T11:24:36.671Z,-964.41
2019-02-11T11:25:36.781Z,-953.16
2019-02-11T11:26:36.990Z,-951.62
2019-02-11T11:27:37.247Z,-954.59
2019-02-11T11:28:37.475Z,-952.51
2019-02-11T11:29:37.720Z,-954.94
2019-02-11T11:30:37.927Z,-955.41
2019-02-11T11:31:38.147Z,-952.37
2019-02-11T11:32:38.397Z,-953.00
2019-02-11T11:33:38.676Z,-957.42
2019-02-11T11:34:39.064Z,-958.85
2019-02-11T11:35:39.061Z,-952.56
2019-02-11T11:36:39.260Z,-958.05
2019-02-11T11:37:39.500Z,-955.16
2019-02-11T11:38:39.688Z,-954.97
2019-02-11T11:39:39.947Z,-950.69
2019-02-11T11:40:40.171Z,-960.68
2019-02-11T11:41:40.508Z,-955.82
2019-02-11T11:42:40.611Z,-956.22
2019-02-11T11:43:40.806Z,-956.98
2019-02-11T11:44:41.030Z,-951.96
2019-02-11T11:45:41.273Z,-952.91
2019-02-11T11:46:46.900Z,-950.28
2019-02-11T11:47:42.733Z,-965.84
2019-02-11T11:48:41.937Z,-957.13
2019-02-11T11:49:42.195Z,-950.25
2019-02-11T11:50:42.415Z,-958.39
2019-02-11T11:51:42.613Z,-949.34
2019-02-11T11:52:42.853Z,-956.95
2019-02-11T11:53:43.057Z,-953.07
2019-02-11T11:54:43.259Z,-959.68
2019-02-11T11:55:43.536Z,-958.72
2019-02-11T11:56:43.766Z,-956.44
2019-02-11T11:57:44.070Z,-948.82
2019-02-11T11:58:44.193Z,-890.28
2019-02-11T11:59:44.418Z,-949.72
2019-02-11T12:00:44.669Z,-952.80
2019-02-11T12:01:44.865Z,-951.40
2019-02-11T12:03:00.343Z,-948.42
2019-02-11T12:03:46.300Z,-941.82
2019-02-11T12:04:45.523Z,-953.84
2019-02-11T12:05:45.804Z,-947.59
2019-02-11T12:06:45.969Z,-960.25
2019-02-11T12:07:46.234Z,-945.68